• Join FlightAware (Why Join?)
  • Login
  • US Flag 
Gobble Gobble! 
04:50AM EST


 

Airport Tracker/Info


-or-


 

Live Flight TrackerFlight Track Log ✈ SKW5535 ✈ 25-Aug-2013 ✈ KMSO - KDEN

Flight Track Log - Related Links

Times and Time Zones

All times are in EDT time to prevent confusion due to time zone crossing. See the SKW5535 flight status page for this flight to view local times or setup timezone preferences in your user account.

Time Position Orientation Groundspeed Altitude Reporting Facility
EDT Latitude Longitude Course Direction KTS MPH feet Rate Location/Type
03:06PM 46.8669 -114.0628 132° Southeast 192 221 5,300  Level Salt Lake Center
03:07PM 46.8075 -114.0664 182° South 214 246 7,600 2,280 Climbing Salt Lake Center
03:08PM 46.7397 -114.0686 181° South 225 259 10,100 2,100 Climbing Salt Lake Center
03:09PM 46.4223 -113.8487 139° Southeast  Level FlightAware Approximate
03:09PM 46.6753 -114.0692 180° South 236 272 12,000  Level Salt Lake Center
03:10PM 46.3525 -113.7264 131° Southeast  Level FlightAware Approximate
03:10PM 46.6147 -114.0056 144° Southeast 277 319 13,300  Level Salt Lake Center
03:11PM 46.2864 -113.6015 132° Southeast  Level FlightAware Approximate
03:11PM 46.5547 -113.9056 131° Southeast 305 351 14,900  Level Salt Lake Center
03:12PM 46.4997 -113.8081 129° Southeast 312 359 16,800 1,680 Climbing Salt Lake Center
03:13PM 46.4372 -113.7008 130° Southeast 323 372 18,400 1,320 Climbing Salt Lake Center
03:14PM 46.3792 -113.6006 130° Southeast 328 377 19,600 780 Climbing Salt Lake Center
03:15PM 46.3217 -113.5056 131° Southeast 344 396 20,100 360 Climbing Salt Lake Center
03:16PM 46.2547 -113.3897 130° Southeast 377 434 20,400 720 Climbing Salt Lake Center
03:17PM 46.1753 -113.2553 130° Southeast 392 451 21,600 960 Climbing Salt Lake Center
03:18PM 46.0958 -113.1242 131° Southeast 401 461 22,400 720 Climbing Salt Lake Center
03:19PM 46.0222 -113.0011 131° Southeast 406 467 23,200 720 Climbing Salt Lake Center
03:20PM 45.9406 -112.8622 130° Southeast 410 472 24,000 660 Climbing Salt Lake Center
03:21PM 45.8683 -112.7425 131° Southeast 412 474 24,600 540 Climbing Salt Lake Center
03:22PM 45.7831 -112.6017 131° Southeast 417 480 25,200 480 Climbing Salt Lake Center
03:23PM 45.7097 -112.4794 131° Southeast 421 484 25,700 600 Climbing Salt Lake Center
03:24PM 45.6228 -112.3394 132° Southeast 422 486 26,500 600 Climbing Salt Lake Center
03:25PM 45.5492 -112.2181 131° Southeast 422 486 27,000 480 Climbing Salt Lake Center
03:26PM 45.4753 -112.0972 131° Southeast 422 486 27,600 600 Climbing Salt Lake Center
03:27PM 45.3892 -111.9606 132° Southeast 417 480 28,300 480 Climbing Salt Lake Center
03:28PM 45.3150 -111.8403 131° Southeast 421 484 28,700 480 Climbing Salt Lake Center
03:29PM 45.2275 -111.7003 132° Southeast 422 486 29,400 600 Climbing Salt Lake Center
03:30PM 45.1536 -111.5833 132° Southeast 419 482 30,000 540 Climbing Salt Lake Center
03:31PM 45.0675 -111.4481 132° Southeast 414 476 30,600 480 Climbing Salt Lake Center
03:32PM 44.9942 -111.3306 131° Southeast 414 476 31,100 540 Climbing Salt Lake Center
03:33PM 44.9075 -111.1953 132° Southeast 414 476 31,800 480 Climbing Salt Lake Center
03:35PM 44.8342 -111.0800 132° Southeast 411 473 32,200 480 Climbing Salt Lake Center
03:36PM 44.7606 -110.9644 132° Southeast 410 472 32,800 360 Climbing Salt Lake Center
03:37PM 44.6758 -110.8336 132° Southeast 404 465 33,000 60 Climbing Salt Lake Center
03:38PM 44.6017 -110.7194 132° Southeast 408 470 33,000  Level Salt Lake Center
03:39PM 44.5131 -110.5831 132° Southeast 418 481 33,000  Level Salt Lake Center
03:40PM 44.4367 -110.4653 132° Southeast 425 489 33,000  Level Salt Lake Center
03:41PM 44.3469 -110.3267 132° Southeast 428 493 33,000  Level Salt Lake Center
03:42PM 44.2692 -110.2097 133° Southeast 430 495 33,000  Level Salt Lake Center
03:43PM 44.1786 -110.0719 132° Southeast 431 496 33,000  Level Salt Lake Center
03:44PM 44.0994 -109.9558 133° Southeast 431 496 33,000  Level Salt Lake Center
03:45PM 44.0136 -109.8589 141° Southeast 416 479 33,000  Level Salt Lake Center
03:46PM 43.8964 -109.7850 156° South 412 474 33,000  Level Salt Lake Center
03:47PM 43.7969 -109.7236 156° South 409 471 33,000  Level Salt Lake Center
03:48PM 43.6797 -109.6508 156° South 412 474 33,000  Level Salt Lake Center
03:49PM 43.5800 -109.5867 155° Southeast 412 474 33,000  Level Salt Lake Center
03:50PM 43.4722 -109.5192 156° South 415 478 33,000  Level Salt Lake Center
03:51PM 43.3681 -109.4553 156° South 413 475 33,000  Level Salt Lake Center
03:52PM 43.2642 -109.3897 155° Southeast 412 474 33,000  Level Salt Lake Center
03:53PM 43.1394 -109.3111 155° Southeast 411 473 33,000  Level Salt Lake Center
03:54PM 43.0358 -109.2464 155° Southeast 411 473 33,000  Level Salt Lake Center
03:55PM 42.9250 -109.1781 156° South 405 466 33,000  Level Salt Lake Center
03:56PM 42.8269 -109.1172 156° South 405 466 33,000  Level Salt Lake Center
03:57PM 42.7275 -109.0569 156° South 406 467 33,000  Level Salt Lake Center
03:58PM 42.6108 -108.9853 156° South 411 473 33,000 -420 Level Salt Lake Center
03:59PM 42.5097 -108.9233 156° South 414 476 32,200 -840 Descending Salt Lake Center
04:00PM 42.3858 -108.8486 156° South 432 497 31,400 -600 Descending Salt Lake Center
04:01PM 42.2803 -108.7831 155° Southeast 436 502 31,000 -240 Descending Salt Lake Center
04:02PM 42.1594 -108.7083 155° Southeast 430 495 31,000  Level Salt Lake Center
04:03PM 42.0567 -108.6469 156° South 425 489 31,000  Level Salt Lake Center
04:04PM 41.9364 -108.5753 156° South 422 486 31,000  Level Salt Lake Center
04:05PM 41.8328 -108.5117 155° Southeast 424 488 31,000  Level Salt Lake Center
04:07PM 41.7314 -108.4522 156° South 417 480 31,000  Level Salt Lake Center
04:08PM 41.5958 -108.3703 156° South 416 479 31,000  Level Denver Center
04:09PM 41.4950 -108.3108 156° South 414 476 31,000  Level Denver Center
04:10PM 41.3769 -108.2419 156° South 414 476 31,000  Level Denver Center
04:11PM 41.3011 -108.1306 132° Southeast 434 499 31,000  Level Denver Center
04:12PM 41.2425 -107.9681 116° Southeast 438 504 31,000  Level Denver Center
04:13PM 41.1917 -107.8278 116° Southeast 440 506 31,000  Level Denver Center
04:14PM 41.1333 -107.6633 115° Southeast 440 506 31,000  Level Denver Center
04:15PM 41.0831 -107.5244 116° Southeast 438 504 31,000  Level Denver Center
04:16PM 41.0314 -107.3844 116° Southeast 441 507 31,000  Level Denver Center
04:17PM 40.9725 -107.2214 116° Southeast 440 506 31,000  Level Denver Center
04:18PM 40.9219 -107.0817 116° Southeast 440 506 31,000  Level Denver Center
04:19PM 40.8608 -106.9186 116° Southeast 442 509 31,000  Level Denver Center
04:20PM 40.8100 -106.7786 116° Southeast 442 509 31,000  Level Denver Center
04:21PM 40.7494 -106.6156 116° Southeast 445 512 31,000 -360 Level Denver Center
04:22PM 40.6953 -106.4750 117° Southeast 447 514 30,300 -1,020 Descending Denver Center
04:23PM 40.6319 -106.3050 116° Southeast 457 526 28,900 -1,380 Descending Denver Center
04:24PM 40.5756 -106.1525 116° Southeast 472 543 27,500 -1,500 Descending Denver Center
04:25PM 40.5147 -105.9956 117° Southeast 479 551 25,900 -1,500 Descending Denver Center
04:26PM 40.4594 -105.8525 117° Southeast 446 513 24,400 -1,380 Descending Denver Center
04:27PM 40.4100 -105.7206 116° Southeast 410 472 23,100 -1,260 Descending Denver Center
04:28PM 40.3756 -105.5583 106° East 386 444 21,800 -780 Descending Denver Center
04:29PM 40.3497 -105.4286 105° East 382 440 21,500 -1,260 Descending Denver Center
04:30PM 40.2742 -105.3083 129° Southeast 402 463 19,300 -2,100 Descending Denver Center
04:31PM 40.1983 -105.1897 130° Southeast 425 489 17,200 -2,160 Descending Denver Center
04:33PM 40.1236 -105.0733 130° Southeast 419 482 14,900 -2,040 Descending Denver Center
04:34PM 40.0456 -104.9522 130° Southeast 407 468 13,000 -1,260 Descending Denver Center
04:35PM 39.9769 -104.8458 130° Southeast 387 445 12,400 -1,020 Descending Denver Center
04:36PM 39.8850 -104.8075 162° South 330 380 11,000 -720 Descending Denver Center
04:37PM 39.8100 -104.8089 181° South 264 304 11,000 -600 Level Denver Center
04:38PM 39.7386 -104.8100 181° South 242 278 9,800 -840 Descending Denver Center
04:39PM 39.7125 -104.7375 115° Southeast 251 289 9,300 -1,020 Descending Denver Center
04:40PM 39.7547 -104.6853 44° Northeast 225 259 7,800 -1,500 Descending Denver Center
04:41PM 39.8114 -104.6881 358° North 195 224 6,300 -1,140 Descending Denver Center
04:42PM 39.8594 -104.6875 North 166 191 5,500 -780 Descending Denver Center